Time;durP1;ratioP1;P1;durP2;ratioP2;P2;SDS_P1;SDS_P2;PMS_P1;PMS_P2;Temp;Humidity;BMP_temperature;BMP_pressure;BME280_temperature;BME280_humidity;BME280_pressure;Samples;Min_cycle;Max_cycle;Signal;HPM_P1;HPM_P2
2024/01/23 00:02:11;;;;;;;10.98;2.63;;;7.50;99.90;;;;;;4935174;29;20039;-90
2024/01/23 00:04:38;;;;;;;5.55;4.47;;;7.50;99.90;;;;;;4940263;29;20028;-90
2024/01/23 00:07:03;;;;;;;4.03;3.35;;;7.60;99.90;;;;;;4932662;29;20042;-91
2024/01/23 00:09:29;;;;;;;5.22;4.20;;;7.70;99.90;;;;;;4934295;29;20092;-91
2024/01/23 00:11:55;;;;;;;7.32;3.30;;;7.60;99.90;;;;;;4980032;28;20039;-93
2024/01/23 00:14:20;;;;;;;4.88;3.33;;;7.70;99.90;;;;;;4955335;29;20032;-91
2024/01/23 00:16:46;;;;;;;9.50;4.65;;;7.80;99.90;;;;;;4958404;29;20032;-89
2024/01/23 00:19:12;;;;;;;4.60;2.20;;;7.80;99.90;;;;;;4952820;29;20411;-91
2024/01/23 00:21:38;;;;;;;10.75;2.83;;;7.70;99.90;;;;;;4945562;29;20031;-91
2024/01/23 00:24:04;;;;;;;5.45;3.25;;;7.70;99.90;;;;;;4937605;29;20035;-92
2024/01/23 00:26:30;;;;;;;4.95;3.33;;;7.80;99.20;;;;;;4948991;29;20024;-89
2024/01/23 00:28:56;;;;;;;7.22;4.47;;;7.90;98.20;;;;;;4949728;29;20020;-91
2024/01/23 00:31:21;;;;;;;5.82;5.32;;;7.90;99.30;;;;;;4955708;29;20031;-91
2024/01/23 00:33:47;;;;;;;4.75;1.85;;;7.90;99.20;;;;;;4946781;29;20028;-92
2024/01/23 00:36:13;;;;;;;6.65;2.83;;;7.90;98.40;;;;;;4948315;29;20027;-91
2024/01/23 00:38:38;;;;;;;7.57;3.58;;;7.90;99.30;;;;;;4946698;29;20036;-91
2024/01/23 00:41:04;;;;;;;8.50;3.97;;;7.90;99.40;;;;;;4965236;28;20031;-91
2024/01/23 00:43:30;;;;;;;8.80;2.85;;;7.80;99.90;;;;;;4950767;29;20118;-90
2024/01/23 00:45:56;;;;;;;9.20;3.65;;;7.80;99.90;;;;;;4951384;29;20028;-91
2024/01/23 00:48:22;;;;;;;5.68;2.75;;;7.80;99.90;;;;;;4948779;29;20054;-89
2024/01/23 00:50:47;;;;;;;7.68;3.40;;;7.70;99.90;;;;;;4948108;29;20024;-89
2024/01/23 00:53:13;;;;;;;5.40;3.47;;;7.80;99.90;;;;;;4948850;29;20028;-91
2024/01/23 00:55:39;;;;;;;7.55;3.58;;;7.80;99.90;;;;;;4936387;29;20031;-90
2024/01/23 00:58:05;;;;;;;8.20;4.70;;;7.80;99.90;;;;;;4929106;29;20087;-90
2024/01/23 01:00:30;;;;;;;7.53;3.78;;;7.70;99.80;;;;;;4946075;29;20024;-91
2024/01/23 01:02:56;;;;;;;4.65;2.25;;;7.80;98.30;;;;;;4962500;28;20024;-91
2024/01/23 01:05:22;;;;;;;8.00;4.13;;;7.80;99.40;;;;;;4927105;29;20036;-90
2024/01/23 01:07:48;;;;;;;7.22;3.60;;;7.80;99.80;;;;;;4928808;29;20110;-90
2024/01/23 01:10:13;;;;;;;7.50;3.28;;;7.80;99.90;;;;;;4941140;29;20439;-91
2024/01/23 01:12:39;;;;;;;6.50;3.67;;;7.70;99.90;;;;;;4947271;29;20023;-90
2024/01/23 01:15:05;;;;;;;4.80;2.92;;;7.70;99.90;;;;;;4946031;29;20028;-91
2024/01/23 01:17:32;;;;;;;5.90;3.67;;;7.60;99.90;;;;;;4947436;29;20478;-93
2024/01/23 01:19:58;;;;;;;7.55;3.88;;;7.60;99.90;;;;;;4949035;29;20040;-92
2024/01/23 01:22:25;;;;;;;9.48;3.75;;;7.60;99.90;;;;;;4946793;29;20040;-90
2024/01/23 01:24:50;;;;;;;6.30;3.22;;;7.60;99.90;;;;;;4935177;29;20052;-91
2024/01/23 01:27:16;;;;;;;4.63;3.90;;;7.60;99.90;;;;;;4930444;29;20024;-91
2024/01/23 01:29:42;;;;;;;5.63;3.47;;;7.50;99.90;;;;;;4928816;29;20055;-90
2024/01/23 01:32:08;;;;;;;10.32;4.18;;;7.50;99.90;;;;;;4934829;29;20015;-92
2024/01/23 01:34:33;;;;;;;6.95;3.97;;;7.40;99.90;;;;;;4932239;29;20065;-93
2024/01/23 01:36:59;;;;;;;9.15;6.00;;;7.40;99.90;;;;;;4930016;29;20024;-92
2024/01/23 01:39:25;;;;;;;10.98;3.20;;;7.50;99.90;;;;;;4939433;29;20086;-91
2024/01/23 01:41:55;;;;;;;10.98;3.65;;;7.50;99.90;;;;;;4933547;29;20039;-91
2024/01/23 01:44:21;;;;;;;11.27;3.45;;;7.40;99.90;;;;;;4929732;29;20090;-90
2024/01/23 01:46:48;;;;;;;12.60;3.17;;;7.40;99.90;;;;;;4937300;29;20158;-91
2024/01/23 01:49:15;;;;;;;8.07;4.28;;;7.50;99.90;;;;;;4944832;29;20028;-91
2024/01/23 01:51:42;;;;;;;7.80;3.90;;;7.40;99.90;;;;;;4929052;29;20047;-90
2024/01/23 01:54:08;;;;;;;7.43;3.78;;;7.50;99.90;;;;;;4930759;29;20020;-90
2024/01/23 01:56:35;;;;;;;8.15;3.95;;;7.40;99.90;;;;;;4959434;28;20103;-93
2024/01/23 01:59:01;;;;;;;5.85;4.53;;;7.40;99.90;;;;;;4957156;28;20130;-91
2024/01/23 02:01:27;;;;;;;13.35;4.63;;;7.50;99.90;;;;;;4946774;29;20039;-90
2024/01/23 02:03:53;;;;;;;12.27;3.33;;;7.50;99.90;;;;;;4942629;29;20167;-90
2024/01/23 02:06:20;;;;;;;11.10;4.45;;;7.50;99.90;;;;;;4938463;29;20043;-92
2024/01/23 02:08:48;;;;;;;8.55;4.63;;;7.50;99.90;;;;;;4947903;29;20098;-89
2024/01/23 02:11:14;;;;;;;14.43;4.90;;;7.50;99.90;;;;;;4944856;29;20035;-91
2024/01/23 02:13:43;;;;;;;9.07;3.88;;;7.40;99.90;;;;;;4940584;29;20024;-90
2024/01/23 02:16:10;;;;;;;8.18;4.47;;;7.40;99.90;;;;;;4943054;29;20040;-90
2024/01/23 02:18:36;;;;;;;7.10;3.33;;;7.40;99.90;;;;;;4946973;29;20039;-90
2024/01/23 02:21:02;;;;;;;9.63;6.13;;;7.40;99.90;;;;;;4946751;29;20031;-91
2024/01/23 02:23:29;;;;;;;10.88;3.47;;;7.40;99.90;;;;;;4928692;29;20032;-90
2024/01/23 02:25:55;;;;;;;5.05;3.47;;;7.40;99.90;;;;;;4941886;29;20031;-90
2024/01/23 02:28:21;;;;;;;11.35;5.70;;;7.40;99.90;;;;;;4945708;29;20135;-91
2024/01/23 02:30:47;;;;;;;9.63;3.65;;;7.40;99.90;;;;;;4945982;29;20023;-91
2024/01/23 02:33:16;;;;;;;10.02;4.13;;;7.40;99.90;;;;;;4945449;29;20089;-96
2024/01/23 02:35:42;;;;;;;10.55;3.20;;;7.40;99.90;;;;;;4936484;29;20106;-90
2024/01/23 02:38:08;;;;;;;10.27;5.05;;;7.40;99.90;;;;;;4945901;29;20031;-92
2024/01/23 02:40:35;;;;;;;12.48;4.15;;;7.40;99.90;;;;;;4949831;29;20032;-91
2024/01/23 02:43:01;;;;;;;14.98;4.97;;;7.40;99.90;;;;;;4948481;29;20031;-89
2024/01/23 02:45:26;;;;;;;7.32;3.35;;;7.40;99.90;;;;;;4936231;29;20028;-91
2024/01/23 02:47:52;;;;;;;12.18;3.70;;;7.40;99.90;;;;;;4944550;29;20074;-90
2024/01/23 02:50:19;;;;;;;8.77;3.67;;;7.40;99.90;;;;;;4945644;29;20024;-91
2024/01/23 02:52:49;;;;;;;6.93;4.22;;;7.30;99.90;;;;;;4939266;29;20032;-90
2024/01/23 02:55:15;;;;;;;20.70;4.13;;;7.40;99.90;;;;;;4926973;29;20039;-91
2024/01/23 02:57:41;;;;;;;17.23;5.43;;;7.40;99.90;;;;;;4941168;29;20032;-90
2024/01/23 03:00:08;;;;;;;10.48;4.63;;;7.40;99.90;;;;;;4927353;29;20028;-91
2024/01/23 03:02:34;;;;;;;10.95;5.95;;;7.40;99.90;;;;;;4945961;29;20039;-92
2024/01/23 03:05:03;;;;;;;12.20;4.70;;;7.40;99.90;;;;;;4945411;29;20055;-90
2024/01/23 03:07:29;;;;;;;13.85;4.20;;;7.40;99.90;;;;;;4945422;29;20107;-91
2024/01/23 03:09:58;;;;;;;14.00;4.90;;;7.40;99.40;;;;;;4939762;29;20028;-91
2024/01/23 03:12:23;;;;;;;19.70;4.60;;;7.40;99.90;;;;;;4928679;29;20040;-91
2024/01/23 03:14:50;;;;;;;12.38;3.50;;;7.50;99.20;;;;;;4944259;29;20024;-91
2024/01/23 03:17:18;;;;;;;7.43;3.05;;;7.50;98.90;;;;;;4937490;29;20024;-91
2024/01/23 03:19:43;;;;;;;11.13;4.90;;;7.40;99.40;;;;;;4944377;29;20054;-90
2024/01/23 03:22:11;;;;;;;9.23;4.13;;;7.40;99.20;;;;;;4944680;29;20024;-91
2024/01/23 03:24:38;;;;;;;10.20;4.45;;;7.50;99.20;;;;;;4934016;29;20048;-93
2024/01/23 03:27:07;;;;;;;14.48;6.43;;;7.50;99.30;;;;;;4949018;29;20043;-89
2024/01/23 03:29:43;;;;;;;14.80;5.05;;;7.40;99.40;;;;;;4947229;29;20071;-93
2024/01/23 03:32:10;;;;;;;9.60;3.95;;;7.40;99.40;;;;;;4931683;29;20028;-91
2024/01/23 03:34:38;;;;;;;12.02;4.60;;;7.40;99.50;;;;;;4926351;29;20056;-91
2024/01/23 03:37:07;;;;;;;6.15;4.70;;;7.50;99.80;;;;;;4927727;29;20111;-92
2024/01/23 03:39:33;;;;;;;11.20;3.95;;;7.50;99.70;;;;;;4925057;29;20270;-91
2024/01/23 03:41:59;;;;;;;14.57;5.72;;;7.40;99.80;;;;;;4926386;29;20129;-91
2024/01/23 03:44:25;;;;;;;9.15;4.72;;;7.40;99.90;;;;;;4926041;29;20043;-89
2024/01/23 03:46:54;;;;;;;13.50;6.10;;;7.40;99.90;;;;;;4930702;29;20063;-92
2024/01/23 03:49:20;;;;;;;10.70;4.10;;;7.40;99.90;;;;;;4939927;29;20023;-92
2024/01/23 03:51:46;;;;;;;12.13;4.90;;;7.40;99.90;;;;;;4944465;29;20027;-90
2024/01/23 03:54:12;;;;;;;10.20;4.20;;;7.30;99.90;;;;;;4955695;29;20023;-91
2024/01/23 03:56:37;;;;;;;14.63;4.25;;;7.30;99.90;;;;;;4957964;29;20027;-89
2024/01/23 03:59:04;;;;;;;7.43;4.32;;;7.30;99.90;;;;;;4956114;29;20042;-90
2024/01/23 04:01:29;;;;;;;15.88;5.15;;;7.30;99.90;;;;;;4947401;29;20107;-89
2024/01/23 04:03:55;;;;;;;12.85;4.43;;;7.40;99.90;;;;;;4941815;29;20479;-91
2024/01/23 04:06:21;;;;;;;9.20;3.55;;;7.30;99.90;;;;;;4945210;29;20054;-91
2024/01/23 04:08:47;;;;;;;18.42;4.18;;;7.30;99.90;;;;;;4947821;29;20027;-90
2024/01/23 04:11:13;;;;;;;13.73;4.50;;;7.20;99.90;;;;;;4937792;29;20036;-89
2024/01/23 04:13:39;;;;;;;10.40;5.82;;;7.30;99.90;;;;;;4932228;29;20020;-91
2024/01/23 04:16:05;;;;;;;7.68;4.28;;;7.20;99.90;;;;;;4946996;29;20059;-90
2024/01/23 04:18:35;;;;;;;8.25;4.22;;;7.20;99.90;;;;;;4940360;29;20047;-91
2024/01/23 04:21:01;;;;;;;12.20;7.28;;;7.20;99.90;;;;;;4946475;29;20020;-91
2024/01/23 04:23:28;;;;;;;17.95;5.28;;;7.10;99.90;;;;;;4930294;29;20031;-93
2024/01/23 04:25:54;;;;;;;14.43;5.38;;;7.20;99.90;;;;;;4946270;29;20055;-88
2024/01/23 04:28:20;;;;;;;13.68;5.13;;;7.20;99.90;;;;;;4936699;29;20487;-90
2024/01/23 04:30:52;;;;;;;6.82;3.92;;;7.10;99.90;;;;;;4927067;29;20024;-90
2024/01/23 04:33:18;;;;;;;8.88;4.85;;;7.10;99.90;;;;;;4928369;29;20032;-91
2024/01/23 04:35:46;;;;;;;10.65;8.80;;;7.20;99.90;;;;;;4932994;29;20024;-90
2024/01/23 04:38:15;;;;;;;13.48;5.25;;;7.20;99.90;;;;;;4930219;29;20035;-90
2024/01/23 04:40:40;;;;;;;12.43;7.75;;;7.20;99.90;;;;;;4926624;29;20036;-90
2024/01/23 04:43:06;;;;;;;9.82;3.55;;;7.20;99.90;;;;;;4928284;29;20119;-90
2024/01/23 04:45:34;;;;;;;13.90;7.88;;;7.10;99.90;;;;;;4948307;29;20034;-91
2024/01/23 04:47:59;;;;;;;7.50;3.83;;;7.10;99.90;;;;;;4944968;29;20028;-91
2024/01/23 04:50:27;;;;;;;11.40;3.95;;;7.10;99.90;;;;;;4944261;29;20055;-91
2024/01/23 04:52:56;;;;;;;10.00;4.68;;;7.00;99.90;;;;;;4940450;29;20020;-90
2024/01/23 04:55:22;;;;;;;11.27;5.97;;;7.00;99.90;;;;;;4945540;29;20067;-91
2024/01/23 04:57:48;;;;;;;5.78;5.03;;;6.90;99.90;;;;;;4946447;29;20087;-89
2024/01/23 05:00:14;;;;;;;5.70;2.55;;;6.90;99.90;;;;;;4930756;29;20482;-90
2024/01/23 05:02:40;;;;;;;6.15;4.07;;;6.80;99.90;;;;;;4937325;29;20038;-90
2024/01/23 05:05:06;;;;;;;9.23;4.32;;;6.90;99.90;;;;;;4945574;29;20111;-90
2024/01/23 05:07:31;;;;;;;7.72;4.10;;;6.90;99.90;;;;;;4944046;29;20542;-90
2024/01/23 05:09:57;;;;;;;6.35;4.88;;;6.80;99.90;;;;;;4938370;29;20024;-89
2024/01/23 05:12:23;;;;;;;21.42;12.75;;;6.80;99.90;;;;;;4956099;28;20036;-91
2024/01/23 05:14:49;;;;;;;8.68;3.35;;;6.70;99.90;;;;;;4929330;29;20108;-90
2024/01/23 05:17:14;;;;;;;8.43;4.43;;;6.70;99.90;;;;;;4963177;28;20028;-89
2024/01/23 05:19:40;;;;;;;7.72;5.13;;;6.60;99.90;;;;;;4938704;29;20040;-91
2024/01/23 05:22:06;;;;;;;5.60;4.22;;;6.60;99.90;;;;;;4956275;28;20048;-91
2024/01/23 05:24:31;;;;;;;11.10;4.85;;;6.50;99.90;;;;;;4926577;29;20032;-89
2024/01/23 05:26:57;;;;;;;7.45;3.45;;;6.50;99.90;;;;;;4932091;29;20198;-89
2024/01/23 05:29:23;;;;;;;4.60;2.67;;;6.40;99.90;;;;;;4924357;29;20028;-88
2024/01/23 05:31:48;;;;;;;9.02;4.65;;;6.40;99.90;;;;;;4924412;29;20032;-90
2024/01/23 05:34:20;;;;;;;7.22;4.63;;;6.40;99.90;;;;;;4940758;29;20435;-90
2024/01/23 05:36:46;;;;;;;7.13;4.03;;;6.30;99.90;;;;;;4923736;29;20059;-90
2024/01/23 05:39:12;;;;;;;8.70;4.35;;;6.20;99.90;;;;;;4933633;29;20047;-88
2024/01/23 05:41:37;;;;;;;7.82;5.20;;;6.20;99.90;;;;;;4947896;29;20094;-91
2024/01/23 05:44:03;;;;;;;6.03;4.10;;;6.10;99.90;;;;;;4947765;29;20030;-89
2024/01/23 05:46:29;;;;;;;7.00;3.95;;;6.10;99.90;;;;;;4944945;29;20672;-89
2024/01/23 05:48:54;;;;;;;4.32;3.75;;;6.10;99.90;;;;;;4929744;29;20079;-90
2024/01/23 05:51:23;;;;;;;5.55;3.47;;;6.10;99.90;;;;;;4928701;29;20052;-89
2024/01/23 05:53:48;;;;;;;5.63;2.67;;;6.10;99.90;;;;;;4946676;29;20111;-91
2024/01/23 05:56:14;;;;;;;3.83;3.47;;;6.10;99.90;;;;;;4941062;29;20036;-90
2024/01/23 05:58:42;;;;;;;3.55;3.25;;;6.10;99.90;;;;;;4931295;29;20039;-89
2024/01/23 06:01:08;;;;;;;6.68;3.88;;;6.10;99.90;;;;;;4930391;29;20028;-90
2024/01/23 06:03:33;;;;;;;5.65;3.92;;;6.10;99.90;;;;;;4932548;29;20055;-89
2024/01/23 06:05:59;;;;;;;6.70;3.72;;;6.10;99.90;;;;;;4940666;29;20032;-89
2024/01/23 06:08:25;;;;;;;4.63;3.92;;;6.10;99.90;;;;;;4959984;28;20028;-91
2024/01/23 06:10:53;;;;;;;3.97;3.50;;;6.10;99.90;;;;;;4929812;29;20092;-92
2024/01/23 06:13:19;;;;;;;7.18;3.63;;;6.10;99.90;;;;;;4927703;29;20028;-90
2024/01/23 06:15:44;;;;;;;5.03;3.50;;;6.10;99.90;;;;;;4926624;29;20040;-90
2024/01/23 06:18:10;;;;;;;4.63;4.20;;;6.10;99.90;;;;;;4926925;29;20032;-91
2024/01/23 06:20:37;;;;;;;4.72;3.55;;;6.00;99.90;;;;;;4926063;29;20062;-90
2024/01/23 06:23:03;;;;;;;6.03;3.65;;;6.00;99.90;;;;;;4933161;29;20024;-89
2024/01/23 06:25:29;;;;;;;6.18;3.72;;;6.00;99.90;;;;;;4927213;29;20035;-89
2024/01/23 06:27:55;;;;;;;4.40;3.10;;;5.90;99.90;;;;;;4937362;29;20027;-90
2024/01/23 06:30:21;;;;;;;6.65;3.78;;;5.90;99.90;;;;;;4932384;29;20032;-90
2024/01/23 06:32:46;;;;;;;8.15;3.78;;;5.90;99.90;;;;;;4932378;29;20342;-89
2024/01/23 06:35:12;;;;;;;6.93;4.20;;;5.90;99.90;;;;;;4923589;29;20032;-90
2024/01/23 06:37:38;;;;;;;3.78;3.28;;;5.90;99.90;;;;;;4924842;29;20055;-92
2024/01/23 06:40:04;;;;;;;6.07;5.22;;;5.90;99.90;;;;;;4927238;29;20548;-91
2024/01/23 06:42:30;;;;;;;4.85;4.47;;;5.90;99.90;;;;;;4915892;29;20035;-93
2024/01/23 06:44:56;;;;;;;5.55;4.45;;;6.00;99.90;;;;;;4946166;28;20044;-91
2024/01/23 06:47:21;;;;;;;7.60;4.15;;;5.90;99.90;;;;;;4927547;29;20020;-89
2024/01/23 06:49:47;;;;;;;5.70;4.85;;;5.80;99.90;;;;;;4920652;29;20053;-91
2024/01/23 06:52:13;;;;;;;5.75;1.90;;;5.70;99.90;;;;;;4919708;29;20435;-91
2024/01/23 06:54:39;;;;;;;5.30;3.60;;;5.60;99.90;;;;;;4923501;29;20016;-91
2024/01/23 06:57:05;;;;;;;7.68;4.35;;;5.60;99.90;;;;;;4923347;29;20475;-92
2024/01/23 06:59:30;;;;;;;6.15;4.07;;;5.60;99.90;;;;;;4960223;28;20044;-94
2024/01/23 07:01:56;;;;;;;6.88;3.72;;;5.60;99.90;;;;;;4924610;29;20091;-94
2024/01/23 07:04:25;;;;;;;10.55;4.10;;;5.50;99.90;;;;;;4921703;29;20695;-91
2024/01/23 07:06:50;;;;;;;8.40;4.40;;;5.50;99.90;;;;;;4922256;29;20139;-94
2024/01/23 07:09:16;;;;;;;6.97;5.28;;;5.50;99.90;;;;;;4923296;29;20052;-90
2024/01/23 07:11:42;;;;;;;10.13;4.82;;;5.50;99.90;;;;;;4925852;29;20063;-90
2024/01/23 07:14:08;;;;;;;8.82;4.10;;;5.50;99.90;;;;;;4923964;29;20020;-92
2024/01/23 07:16:34;;;;;;;7.13;5.13;;;5.60;99.90;;;;;;4926744;29;20119;-90
2024/01/23 07:19:00;;;;;;;10.38;3.97;;;5.50;99.90;;;;;;4924405;29;20036;-92
2024/01/23 07:21:26;;;;;;;6.82;4.68;;;5.60;99.90;;;;;;4919605;29;20096;-92
2024/01/23 07:23:51;;;;;;;15.40;5.53;;;5.60;99.90;;;;;;4923339;29;20128;-92
2024/01/23 07:26:17;;;;;;;9.40;4.47;;;5.60;99.90;;;;;;4929886;29;20027;-91
2024/01/23 07:28:43;;;;;;;6.32;4.90;;;5.60;99.90;;;;;;4918336;29;20032;-93
2024/01/23 07:31:11;;;;;;;6.75;4.38;;;5.60;99.90;;;;;;4922867;29;20099;-93
2024/01/23 07:33:37;;;;;;;6.25;5.55;;;5.60;99.90;;;;;;4922458;29;20020;-92
2024/01/23 07:36:03;;;;;;;10.70;4.40;;;5.70;99.90;;;;;;4926120;29;20063;-90
2024/01/23 07:38:28;;;;;;;11.80;4.78;;;5.60;99.90;;;;;;4918675;29;20609;-93
2024/01/23 07:40:54;;;;;;;10.45;4.32;;;5.60;99.90;;;;;;4955855;28;20028;-92
2024/01/23 07:43:26;;;;;;;9.32;4.32;;;5.60;99.90;;;;;;4925401;29;20583;-92
2024/01/23 07:45:53;;;;;;;14.05;6.22;;;5.60;99.90;;;;;;4925867;29;20046;-91
2024/01/23 07:48:19;;;;;;;8.38;3.72;;;5.60;99.90;;;;;;4926474;29;20140;-93
2024/01/23 07:50:45;;;;;;;10.05;3.95;;;5.60;99.90;;;;;;4927824;29;20032;-90
2024/01/23 07:53:11;;;;;;;7.35;4.22;;;5.60;99.90;;;;;;4925941;29;20046;-91
2024/01/23 07:55:36;;;;;;;6.75;4.47;;;5.60;99.90;;;;;;4930788;29;20042;-92
2024/01/23 07:58:02;;;;;;;14.10;5.45;;;5.70;99.90;;;;;;4925708;29;20040;-92
2024/01/23 08:00:28;;;;;;;19.77;6.93;;;5.70;99.90;;;;;;4922381;29;20074;-93
2024/01/23 08:02:54;;;;;;;14.27;6.22;;;5.80;99.90;;;;;;4928083;29;20120;-94
2024/01/23 08:05:20;;;;;;;17.27;5.50;;;5.80;99.90;;;;;;4924364;29;20043;-90
2024/01/23 08:07:45;;;;;;;12.32;5.75;;;5.90;99.90;;;;;;4927513;29;20032;-91
2024/01/23 08:10:11;;;;;;;7.80;4.45;;;6.00;99.90;;;;;;4928131;29;20099;-93
2024/01/23 08:12:37;;;;;;;13.75;6.00;;;6.00;99.90;;;;;;4923687;29;20123;-95
2024/01/23 08:15:04;;;;;;;8.63;4.03;;;6.00;99.90;;;;;;4921085;29;20035;-91
2024/01/23 08:17:29;;;;;;;7.35;5.20;;;6.00;99.90;;;;;;4922952;29;20075;-91
2024/01/23 08:19:58;;;;;;;12.35;6.75;;;6.00;99.90;;;;;;4926227;29;20558;-91
2024/01/23 08:22:24;;;;;;;8.90;4.97;;;6.00;99.90;;;;;;4923720;29;20058;-94
2024/01/23 08:24:51;;;;;;;15.98;5.38;;;6.10;99.90;;;;;;4926093;29;20041;-91
2024/01/23 08:27:17;;;;;;;12.73;5.82;;;6.10;99.90;;;;;;4953409;28;20728;-91
2024/01/23 08:29:44;;;;;;;9.65;5.22;;;6.10;99.90;;;;;;4923499;29;20056;-91
2024/01/23 08:32:10;;;;;;;11.93;5.45;;;6.10;99.90;;;;;;4926059;29;20031;-89
2024/01/23 08:34:36;;;;;;;15.60;6.22;;;6.10;99.90;;;;;;4955497;28;20115;-94
2024/01/23 08:37:04;;;;;;;12.95;5.78;;;6.10;99.90;;;;;;4924941;29;20036;-94
2024/01/23 08:39:29;;;;;;;9.23;4.50;;;6.10;99.90;;;;;;4927315;29;20043;-90
2024/01/23 08:41:55;;;;;;;11.13;6.10;;;6.10;99.90;;;;;;4924286;29;20035;-93
2024/01/23 08:44:21;;;;;;;9.57;5.28;;;6.10;99.90;;;;;;4927858;29;20078;-93
2024/01/23 08:46:48;;;;;;;11.32;5.05;;;6.20;99.90;;;;;;4926239;29;20746;-90
2024/01/23 08:49:15;;;;;;;12.93;3.47;;;6.30;99.90;;;;;;4928273;29;20419;-94
2024/01/23 08:51:41;;;;;;;9.13;5.90;;;6.30;99.90;;;;;;4924846;29;20207;-93
2024/01/23 08:54:09;;;;;;;14.18;4.13;;;6.40;99.90;;;;;;4928821;29;20495;-91
2024/01/23 08:56:38;;;;;;;7.47;4.20;;;6.40;99.90;;;;;;4926139;29;20040;-94
2024/01/23 08:59:05;;;;;;;10.02;5.53;;;6.60;99.90;;;;;;4960630;28;20063;-91
2024/01/23 09:01:31;;;;;;;11.05;5.55;;;6.60;99.90;;;;;;4931498;29;20047;-90
2024/01/23 09:03:59;;;;;;;9.15;5.13;;;6.70;99.90;;;;;;4919606;29;20079;-90
2024/01/23 09:06:24;;;;;;;8.88;3.78;;;6.80;99.90;;;;;;4924450;29;20035;-94
2024/01/23 09:08:50;;;;;;;7.53;2.38;;;6.90;99.90;;;;;;4925968;29;20440;-91
2024/01/23 09:11:19;;;;;;;15.48;5.25;;;6.90;99.90;;;;;;4925517;29;20079;-90
2024/01/23 09:13:44;;;;;;;10.90;5.78;;;6.90;99.90;;;;;;4955034;28;20064;-96
2024/01/23 09:16:12;;;;;;;12.85;4.72;;;6.90;99.90;;;;;;4924041;29;20020;-92
2024/01/23 09:18:40;;;;;;;5.55;4.38;;;7.00;99.90;;;;;;4926831;29;20032;-90
2024/01/23 09:21:08;;;;;;;10.40;4.32;;;7.00;99.90;;;;;;4923242;29;20038;-92
2024/01/23 09:23:37;;;;;;;13.85;5.20;;;7.10;99.90;;;;;;4948512;28;20047;-91
2024/01/23 09:26:03;;;;;;;9.77;4.03;;;7.20;99.90;;;;;;4927325;29;20063;-90
2024/01/23 09:28:29;;;;;;;11.30;4.78;;;7.30;99.90;;;;;;4937558;29;20032;-90
2024/01/23 09:30:55;;;;;;;14.00;4.75;;;7.30;99.90;;;;;;4926627;29;20123;-92
2024/01/23 09:33:21;;;;;;;14.68;5.75;;;7.30;99.90;;;;;;4925232;29;20059;-89
2024/01/23 09:35:48;;;;;;;11.50;4.97;;;7.20;99.90;;;;;;4927684;29;20422;-90
2024/01/23 09:38:14;;;;;;;8.68;5.75;;;7.20;99.90;;;;;;4929928;29;20549;-91
2024/01/23 09:40:41;;;;;;;14.45;4.75;;;7.30;99.90;;;;;;4927322;29;20036;-91
2024/01/23 09:43:11;;;;;;;17.40;6.10;;;7.40;99.90;;;;;;4935324;29;20056;-89
2024/01/23 09:45:39;;;;;;;9.63;5.38;;;7.40;99.90;;;;;;4925902;29;20047;-92
2024/01/23 09:48:07;;;;;;;12.07;4.65;;;7.40;99.90;;;;;;4922206;29;20048;-91
2024/01/23 09:50:35;;;;;;;10.93;5.00;;;7.60;99.90;;;;;;4923701;29;20020;-91
2024/01/23 09:53:02;;;;;;;13.27;6.18;;;7.70;99.90;;;;;;4937760;29;20107;-92
2024/01/23 09:55:27;;;;;;;22.33;6.47;;;7.90;99.90;;;;;;4939793;29;20032;-90
2024/01/23 09:57:54;;;;;;;9.57;5.10;;;8.20;99.90;;;;;;4939026;29;20034;-91
2024/01/23 10:00:20;;;;;;;9.98;4.70;;;8.30;99.90;;;;;;4928793;29;20119;-92
2024/01/23 10:02:46;;;;;;;17.75;5.25;;;8.30;99.90;;;;;;4951779;28;20059;-91
2024/01/23 10:05:19;;;;;;;9.55;4.65;;;8.20;99.90;;;;;;4929081;29;20520;-92
2024/01/23 10:07:47;;;;;;;13.90;4.32;;;8.30;99.90;;;;;;4935363;29;20036;-94
2024/01/23 10:10:15;;;;;;;17.60;4.63;;;8.40;99.90;;;;;;4935696;29;20052;-92
2024/01/23 10:12:44;;;;;;;15.43;5.07;;;8.50;99.90;;;;;;4936638;29;20035;-92
2024/01/23 10:15:16;;;;;;;13.60;4.30;;;8.60;98.90;;;;;;4928809;29;20494;-92
2024/01/23 10:17:43;;;;;;;15.65;5.10;;;8.60;98.40;;;;;;4940642;29;20062;-91
2024/01/23 10:20:09;;;;;;;12.02;5.45;;;8.70;99.10;;;;;;4938561;29;20474;-92
2024/01/23 10:22:36;;;;;;;9.68;4.53;;;8.70;96.90;;;;;;4938870;29;20324;-91
2024/01/23 10:25:03;;;;;;;9.82;5.13;;;8.80;96.80;;;;;;4939726;29;20545;-93
2024/01/23 10:27:30;;;;;;;20.05;4.78;;;8.90;95.70;;;;;;4937535;29;20031;-92
2024/01/23 10:29:59;;;;;;;11.88;4.55;;;8.90;92.30;;;;;;4921666;29;20032;-96
2024/01/23 10:32:28;;;;;;;12.77;4.18;;;9.10;94.40;;;;;;4930201;29;20087;-93
2024/01/23 10:34:57;;;;;;;13.95;5.10;;;9.30;88.80;;;;;;4933755;29;20107;-93
2024/01/23 10:37:23;;;;;;;13.50;4.85;;;9.50;89.40;;;;;;4922693;29;20475;-92
2024/01/23 10:39:51;;;;;;;14.85;5.20;;;9.80;88.70;;;;;;4939719;29;20034;-93
2024/01/23 10:42:18;;;;;;;16.73;4.35;;;9.70;84.90;;;;;;4937299;29;20059;-91
2024/01/23 10:44:54;;;;;;;14.43;5.05;;;9.70;87.70;;;;;;4920098;29;20055;-92
2024/01/23 10:47:20;;;;;;;10.85;5.18;;;9.70;86.60;;;;;;4930517;29;20027;-91
2024/01/23 10:49:46;;;;;;;14.25;3.55;;;9.80;86.10;;;;;;4939574;29;20054;-92
2024/01/23 10:52:17;;;;;;;10.00;4.43;;;10.00;82.60;;;;;;4930628;29;20487;-91
2024/01/23 10:54:45;;;;;;;11.65;3.78;;;10.20;80.80;;;;;;4941534;29;20027;-91
2024/01/23 10:57:24;;;;;;;9.85;5.43;;;10.20;77.60;;;;;;4939329;29;20103;-93
2024/01/23 10:59:51;;;;;;;15.52;4.88;;;10.10;79.00;;;;;;4937137;29;20023;-92
2024/01/23 11:02:25;;;;;;;16.02;5.13;;;9.80;82.00;;;;;;4938466;29;20036;-91
2024/01/23 11:04:51;;;;;;;18.23;5.07;;;9.70;80.60;;;;;;4940811;29;20028;-92
2024/01/23 11:07:29;;;;;;;17.52;4.93;;;9.30;80.60;;;;;;4974710;28;20043;-93
2024/01/23 11:10:11;;;;;;;16.95;4.85;;;9.10;81.20;;;;;;4939866;29;20066;-93
2024/01/23 11:12:43;;;;;;;12.05;5.20;;;8.90;82.80;;;;;;4927327;29;20024;-91
2024/01/23 11:15:15;;;;;;;11.15;5.95;;;8.80;85.00;;;;;;4942190;29;20024;-92
2024/01/23 11:17:41;;;;;;;14.68;4.75;;;8.80;83.30;;;;;;4926746;29;20016;-90
2024/01/23 11:20:13;;;;;;;15.60;5.80;;;8.90;84.60;;;;;;4925246;29;20822;-91
2024/01/23 11:22:39;;;;;;;14.05;4.70;;;9.40;82.90;;;;;;4927010;29;20024;-91
2024/01/23 11:25:05;;;;;;;11.75;3.47;;;9.70;78.40;;;;;;4956704;28;20031;-92
2024/01/23 11:27:33;;;;;;;9.52;3.97;;;9.80;79.20;;;;;;4942720;29;20051;-92
2024/01/23 11:30:00;;;;;;;18.45;5.45;;;10.20;80.20;;;;;;4934994;29;20075;-91
2024/01/23 11:32:28;;;;;;;11.57;4.95;;;10.70;77.10;;;;;;4935511;29;20027;-90
2024/01/23 11:35:00;;;;;;;15.48;4.07;;;10.30;74.70;;;;;;4939609;29;20031;-91
2024/01/23 11:37:32;;;;;;;9.98;4.22;;;10.40;74.50;;;;;;4941930;29;20059;-92
2024/01/23 11:40:06;;;;;;;10.88;4.55;;;10.30;76.20;;;;;;4934351;29;20042;-91
2024/01/23 11:42:41;;;;;;;16.35;3.92;;;10.50;76.20;;;;;;4932851;29;20091;-91
2024/01/23 11:45:25;;;;;;;11.90;3.83;;;10.70;74.00;;;;;;4923901;29;20040;-91
2024/01/23 11:47:56;;;;;;;10.85;4.60;;;11.00;72.90;;;;;;4923534;29;20032;-92
2024/01/23 11:50:22;;;;;;;15.85;4.72;;;10.60;74.30;;;;;;4941947;29;20028;-91
2024/01/23 11:52:51;;;;;;;13.23;5.07;;;10.50;74.30;;;;;;4943370;29;20498;-91
2024/01/23 11:55:19;;;;;;;14.25;4.60;;;10.10;75.70;;;;;;4941959;29;20024;-92
2024/01/23 11:57:46;;;;;;;6.93;2.72;;;10.00;78.10;;;;;;4943977;29;20028;-92
2024/01/23 12:00:13;;;;;;;12.65;4.68;;;9.80;77.70;;;;;;4927526;29;20056;-92
2024/01/23 12:02:39;;;;;;;11.93;5.63;;;9.80;76.80;;;;;;4924501;29;20040;-89
2024/01/23 12:05:05;;;;;;;14.60;5.28;;;9.70;78.40;;;;;;4940919;29;20019;-92
2024/01/23 12:07:34;;;;;;;11.20;2.65;;;9.70;79.30;;;;;;4937538;29;20096;-92
2024/01/23 12:10:00;;;;;;;10.32;4.30;;;9.50;78.10;;;;;;4954968;29;20028;-91
2024/01/23 12:12:26;;;;;;;12.85;5.97;;;9.50;78.90;;;;;;4972726;28;20020;-90
2024/01/23 12:14:52;;;;;;;16.90;4.55;;;9.60;78.90;;;;;;4935553;29;20020;-92
2024/01/23 12:17:17;;;;;;;10.07;4.88;;;9.50;79.80;;;;;;4943967;29;20032;-91
2024/01/23 12:19:46;;;;;;;9.75;5.18;;;9.40;80.40;;;;;;4933103;29;20020;-91
2024/01/23 12:22:14;;;;;;;12.52;6.22;;;9.20;80.00;;;;;;4923937;29;20028;-90
2024/01/23 12:24:41;;;;;;;10.40;3.03;;;9.10;81.90;;;;;;4941932;29;20034;-91
2024/01/23 12:27:08;;;;;;;12.00;5.45;;;9.00;84.00;;;;;;4940780;29;20050;-91
2024/01/23 12:29:38;;;;;;;9.75;3.45;;;8.90;85.20;;;;;;4936020;29;20031;-92
2024/01/23 12:32:04;;;;;;;31.30;16.98;;;8.80;87.50;;;;;;4931495;29;20027;-91
2024/01/23 12:34:33;;;;;;;9.63;4.78;;;8.70;89.10;;;;;;4926159;29;20031;-91
2024/01/23 12:37:03;;;;;;;13.70;4.90;;;8.70;89.10;;;;;;4938992;29;20028;-93
2024/01/23 12:39:31;;;;;;;7.05;3.45;;;8.80;90.30;;;;;;4944844;29;20136;-92
2024/01/23 12:41:57;;;;;;;16.75;6.53;;;8.80;89.80;;;;;;4937515;29;20032;-93
2024/01/23 12:44:24;;;;;;;8.73;3.35;;;8.80;91.50;;;;;;4927092;28;20040;-93
2024/01/23 12:46:50;;;;;;;11.10;3.63;;;8.80;90.00;;;;;;4925135;29;20103;-94
2024/01/23 12:49:18;;;;;;;12.38;5.25;;;8.90;88.20;;;;;;4942292;29;20023;-91